Time;durP1;ratioP1;P1;durP2;ratioP2;P2;SDS_P1;SDS_P2;PMS_P1;PMS_P2;Temp;Humidity;BMP_temperature;BMP_pressure;BME280_temperature;BME280_humidity;BME280_pressure;Samples;Min_cycle;Max_cycle;Signal;HPM_P1;HPM_P2
2022/04/04 00:02:18;;;;;;;4.45;2.60;;;2.80;52.10;;;;;;2337651;54;20960;-67
2022/04/04 00:04:44;;;;;;;6.75;2.60;;;2.80;52.10;;;;;;2339171;54;21024;-67
2022/04/04 00:07:10;;;;;;;4.25;2.33;;;2.80;52.10;;;;;;2338256;54;21088;-68
2022/04/04 00:09:37;;;;;;;5.32;2.65;;;2.70;52.00;;;;;;2337234;54;20976;-65
2022/04/04 00:12:03;;;;;;;4.85;2.55;;;2.70;52.10;;;;;;2341074;53;21411;-68
2022/04/04 00:14:30;;;;;;;4.62;2.30;;;2.70;52.00;;;;;;2415785;54;20961;-68
2022/04/04 00:16:56;;;;;;;4.60;2.80;;;2.60;51.90;;;;;;2337877;54;20957;-68
2022/04/04 00:19:22;;;;;;;4.82;2.50;;;2.60;52.00;;;;;;2338057;54;20935;-68
2022/04/04 00:21:49;;;;;;;4.43;2.42;;;2.60;52.10;;;;;;2337500;54;20957;-67
2022/04/04 00:24:15;;;;;;;4.65;2.28;;;2.50;52.00;;;;;;2334663;54;20944;-69
2022/04/04 00:26:41;;;;;;;4.60;2.47;;;2.50;52.00;;;;;;2585045;53;20985;-67
2022/04/04 00:29:08;;;;;;;5.62;2.65;;;2.50;52.00;;;;;;2340075;54;21389;-66
2022/04/04 00:31:34;;;;;;;4.37;2.42;;;2.50;51.90;;;;;;2342155;53;21023;-67
2022/04/04 00:34:00;;;;;;;5.20;2.67;;;2.40;51.90;;;;;;2343461;53;20968;-67
2022/04/04 00:36:26;;;;;;;4.93;2.58;;;2.40;51.90;;;;;;2338919;53;20928;-66
2022/04/04 00:38:53;;;;;;;5.82;2.53;;;2.30;51.90;;;;;;2340138;53;20924;-67
2022/04/04 00:41:19;;;;;;;5.95;3.17;;;2.30;52.00;;;;;;2339858;54;20998;-67
2022/04/04 00:43:49;;;;;;;6.07;2.80;;;2.30;52.10;;;;;;2339915;54;20936;-68
2022/04/04 00:46:15;;;;;;;5.80;3.03;;;2.20;52.30;;;;;;2585034;53;20937;-66
2022/04/04 00:48:43;;;;;;;4.80;2.72;;;2.20;52.40;;;;;;2338183;53;20933;-69
2022/04/04 00:51:09;;;;;;;5.20;2.72;;;2.20;52.50;;;;;;2338820;53;20976;-70
2022/04/04 00:53:36;;;;;;;5.07;2.30;;;2.20;52.60;;;;;;2584241;53;21464;-69
2022/04/04 00:56:03;;;;;;;4.15;2.22;;;2.20;52.60;;;;;;2340131;53;21023;-67
2022/04/04 00:58:30;;;;;;;5.30;2.75;;;2.20;52.60;;;;;;2341000;53;20986;-67
2022/04/04 01:00:57;;;;;;;4.15;2.30;;;2.20;52.70;;;;;;2344070;53;21065;-65
2022/04/04 01:03:24;;;;;;;4.70;2.45;;;2.20;52.70;;;;;;2337387;53;20928;-68
2022/04/04 01:05:50;;;;;;;5.10;2.40;;;2.20;52.70;;;;;;2338900;53;21008;-67
2022/04/04 01:08:17;;;;;;;4.00;2.22;;;2.20;52.80;;;;;;2342536;53;20997;-68
2022/04/04 01:10:43;;;;;;;4.87;2.28;;;2.30;52.80;;;;;;2339570;54;21000;-69
2022/04/04 01:13:10;;;;;;;4.85;2.20;;;2.30;52.80;;;;;;2519304;53;21930;-66
2022/04/04 01:15:37;;;;;;;5.10;2.40;;;2.30;52.80;;;;;;2337947;54;21032;-66
2022/04/04 01:18:04;;;;;;;3.92;1.80;;;2.30;52.80;;;;;;2454274;53;21434;-68
2022/04/04 01:20:31;;;;;;;5.75;2.53;;;2.30;52.70;;;;;;2338211;54;20936;-67
2022/04/04 01:22:58;;;;;;;4.57;2.53;;;2.30;52.60;;;;;;2564167;53;21457;-68
2022/04/04 01:25:28;;;;;;;6.45;3.00;;;2.30;52.50;;;;;;2338480;54;20944;-67
2022/04/04 01:27:55;;;;;;;7.15;3.33;;;2.30;52.50;;;;;;2338027;54;21000;-67
2022/04/04 01:30:22;;;;;;;6.62;3.10;;;2.20;52.50;;;;;;2338112;54;20916;-66
2022/04/04 01:32:49;;;;;;;4.18;2.50;;;2.20;52.40;;;;;;2377884;53;21005;-66
2022/04/04 01:35:16;;;;;;;4.37;1.95;;;2.20;52.50;;;;;;2338552;54;20948;-65
2022/04/04 01:37:43;;;;;;;4.90;2.58;;;2.20;52.60;;;;;;2337812;54;20928;-66
2022/04/04 01:40:10;;;;;;;4.37;2.30;;;2.10;52.40;;;;;;2338357;54;20956;-68
2022/04/04 01:42:37;;;;;;;4.30;1.95;;;2.10;52.40;;;;;;2425635;53;20940;-66
2022/04/04 01:45:08;;;;;;;4.55;2.37;;;2.10;52.30;;;;;;2338269;54;21488;-69
2022/04/04 01:47:34;;;;;;;3.53;1.80;;;2.10;52.40;;;;;;2338239;54;20976;-69
2022/04/04 01:50:01;;;;;;;4.22;1.90;;;2.00;52.30;;;;;;2583568;53;20940;-67
2022/04/04 01:52:30;;;;;;;4.28;2.10;;;2.00;52.40;;;;;;2411923;53;20940;-67
2022/04/04 01:54:57;;;;;;;3.97;2.00;;;2.00;52.40;;;;;;2422441;53;21513;-69
2022/04/04 01:57:23;;;;;;;5.53;2.22;;;2.00;52.50;;;;;;2337479;53;20924;-67
2022/04/04 01:59:50;;;;;;;5.70;1.90;;;2.00;52.70;;;;;;2341743;54;21971;-68
2022/04/04 02:02:16;;;;;;;4.65;2.10;;;2.00;52.80;;;;;;2337348;53;20992;-68
2022/04/04 02:04:42;;;;;;;4.07;2.17;;;2.00;52.80;;;;;;2341542;53;21091;-68
2022/04/04 02:07:09;;;;;;;4.82;2.15;;;2.00;52.80;;;;;;2583338;53;21968;-68
2022/04/04 02:09:35;;;;;;;4.03;2.25;;;2.00;52.80;;;;;;2511157;52;21000;-68
2022/04/04 02:12:02;;;;;;;4.95;2.37;;;2.00;52.70;;;;;;2338030;54;21008;-67
2022/04/04 02:14:32;;;;;;;3.33;1.92;;;1.90;52.70;;;;;;2337804;54;20941;-66
2022/04/04 02:16:58;;;;;;;4.30;1.70;;;2.00;52.70;;;;;;2338370;54;20957;-66
2022/04/04 02:19:25;;;;;;;4.20;2.20;;;2.00;52.70;;;;;;2338091;54;21040;-68
2022/04/04 02:21:52;;;;;;;3.75;2.08;;;2.00;52.70;;;;;;2395252;53;20949;-67
2022/04/04 02:24:18;;;;;;;6.12;2.92;;;2.00;52.70;;;;;;2341080;53;21568;-69
2022/04/04 02:26:45;;;;;;;7.80;3.35;;;2.00;52.70;;;;;;2337958;53;20932;-67
2022/04/04 02:29:11;;;;;;;7.20;3.50;;;2.00;52.70;;;;;;2346020;53;21020;-70
2022/04/04 02:31:37;;;;;;;8.82;3.70;;;2.00;52.60;;;;;;2579217;53;20992;-66
2022/04/04 02:34:04;;;;;;;6.97;3.30;;;2.00;52.60;;;;;;2338103;54;21543;-66
2022/04/04 02:36:31;;;;;;;7.80;3.30;;;2.00;52.50;;;;;;2338611;54;20948;-68
2022/04/04 02:38:57;;;;;;;8.02;3.80;;;2.00;52.50;;;;;;2340930;53;21895;-66
2022/04/04 02:41:25;;;;;;;8.02;3.62;;;2.00;52.50;;;;;;2484650;53;20980;-66
2022/04/04 02:43:51;;;;;;;6.87;3.22;;;1.90;52.40;;;;;;2338153;53;21524;-68
2022/04/04 02:46:18;;;;;;;5.25;2.83;;;1.90;52.40;;;;;;2354218;53;21005;-66
2022/04/04 02:48:44;;;;;;;5.10;2.35;;;1.90;52.40;;;;;;2557392;53;20976;-69
2022/04/04 02:51:10;;;;;;;6.18;2.90;;;1.90;52.40;;;;;;2338201;54;21059;-66
2022/04/04 02:53:38;;;;;;;6.70;2.75;;;1.80;52.20;;;;;;2336984;54;20925;-67
2022/04/04 02:58:53;;;;;;;4.72;2.20;;;1.80;52.20;;;;;;2332513;54;20952;-68
2022/04/04 03:01:22;;;;;;;5.37;2.03;;;1.70;52.20;;;;;;2582304;53;20988;-68
2022/04/04 03:03:48;;;;;;;5.68;2.60;;;1.70;52.40;;;;;;2337946;54;20940;-68
2022/04/04 03:06:16;;;;;;;9.35;2.87;;;1.70;52.50;;;;;;2342446;53;22048;-65
2022/04/04 03:08:42;;;;;;;4.50;2.37;;;1.70;52.70;;;;;;2336775;53;20940;-66
2022/04/04 03:11:09;;;;;;;6.12;2.95;;;1.70;52.70;;;;;;2337773;54;21000;-67
2022/04/04 03:13:35;;;;;;;5.00;2.60;;;1.70;52.80;;;;;;2337250;54;20996;-67
2022/04/04 03:16:02;;;;;;;4.47;2.67;;;1.70;52.90;;;;;;2337697;53;20936;-68
2022/04/04 03:18:29;;;;;;;5.65;2.60;;;1.70;53.00;;;;;;2338107;54;20916;-68
2022/04/04 03:20:55;;;;;;;4.68;2.37;;;1.70;53.00;;;;;;2340853;53;20953;-69
2022/04/04 03:23:22;;;;;;;6.18;2.60;;;1.70;53.60;;;;;;2417154;53;20979;-67
2022/04/04 03:25:48;;;;;;;4.68;2.83;;;1.70;53.00;;;;;;2514886;53;20960;-68
2022/04/04 03:28:14;;;;;;;5.40;2.72;;;1.80;53.10;;;;;;2341757;53;21000;-68
2022/04/04 03:30:41;;;;;;;7.20;2.62;;;1.70;53.00;;;;;;2581868;53;20940;-68
2022/04/04 03:33:07;;;;;;;4.68;2.17;;;1.80;53.10;;;;;;2343194;53;21024;-67
2022/04/04 03:35:34;;;;;;;6.10;3.10;;;1.80;53.10;;;;;;2524102;52;20956;-67
2022/04/04 03:38:01;;;;;;;6.68;2.75;;;1.80;53.10;;;;;;2337574;53;21857;-66
2022/04/04 03:40:27;;;;;;;5.18;2.67;;;1.80;53.10;;;;;;2335710;53;20960;-65
2022/04/04 03:42:55;;;;;;;6.22;3.00;;;1.80;53.70;;;;;;2364922;53;21130;-69
2022/04/04 03:45:21;;;;;;;7.05;2.60;;;1.80;53.00;;;;;;2337974;54;20999;-68
2022/04/04 03:47:48;;;;;;;4.70;2.45;;;1.80;52.90;;;;;;2337864;54;20908;-67
2022/04/04 03:50:18;;;;;;;5.18;2.40;;;1.80;52.90;;;;;;2336359;53;20940;-69
2022/04/04 03:52:47;;;;;;;6.55;2.50;;;1.80;52.90;;;;;;2304219;55;20972;-69
2022/04/04 03:55:13;;;;;;;5.22;2.55;;;1.80;53.00;;;;;;2322660;54;22035;-68
2022/04/04 03:57:40;;;;;;;5.03;2.65;;;1.80;53.00;;;;;;2456391;53;20996;-67
2022/04/04 04:00:07;;;;;;;6.65;2.95;;;1.80;53.00;;;;;;2323205;54;21561;-70
2022/04/04 04:02:34;;;;;;;7.07;3.80;;;1.80;53.00;;;;;;2323039;54;20968;-66
2022/04/04 04:05:00;;;;;;;6.53;3.35;;;1.80;53.00;;;;;;2322877;54;21060;-66
2022/04/04 04:07:27;;;;;;;6.60;2.87;;;1.80;53.00;;;;;;2324637;53;22014;-67
2022/04/04 04:09:54;;;;;;;4.70;2.80;;;1.80;53.00;;;;;;2566436;53;20980;-70
2022/04/04 04:12:20;;;;;;;5.80;2.87;;;1.80;53.00;;;;;;2359613;53;20948;-68
2022/04/04 04:14:51;;;;;;;7.47;3.20;;;1.90;53.10;;;;;;2322824;54;20956;-69
2022/04/04 04:17:18;;;;;;;6.90;3.25;;;1.90;53.10;;;;;;2362960;53;20944;-69
2022/04/04 04:22:30;;;;;;;14.50;6.68;;;1.90;53.00;;;;;;2323161;54;21020;-69
2022/04/04 04:24:57;;;;;;;10.93;5.18;;;1.90;52.90;;;;;;2321943;54;20973;-69
2022/04/04 04:27:23;;;;;;;8.10;4.22;;;1.90;52.90;;;;;;2468600;53;20945;-69
2022/04/04 04:29:50;;;;;;;7.18;3.75;;;1.90;52.90;;;;;;2489692;53;20912;-68
2022/04/04 04:32:16;;;;;;;6.25;3.40;;;1.90;52.90;;;;;;2486725;53;21916;-67
2022/04/04 04:34:47;;;;;;;6.00;3.42;;;1.80;52.80;;;;;;2321957;53;20946;-68
2022/04/04 04:37:14;;;;;;;6.95;3.47;;;1.90;53.00;;;;;;2322567;54;21528;-69
2022/04/04 04:39:40;;;;;;;5.80;2.75;;;1.90;53.00;;;;;;2322755;54;20991;-68
2022/04/04 04:42:07;;;;;;;7.95;3.30;;;1.90;53.00;;;;;;2345453;53;20936;-69
2022/04/04 04:44:33;;;;;;;9.18;3.97;;;1.90;53.00;;;;;;2322837;54;20975;-67
2022/04/04 04:47:00;;;;;;;8.45;4.05;;;1.90;53.00;;;;;;2326584;53;20949;-69
2022/04/04 04:49:27;;;;;;;17.45;7.05;;;1.90;53.10;;;;;;2323605;53;20963;-67
2022/04/04 04:51:54;;;;;;;21.27;7.87;;;1.90;53.00;;;;;;2322561;54;20964;-69
2022/04/04 04:54:20;;;;;;;24.52;9.23;;;1.90;53.10;;;;;;2327459;53;20953;-69
2022/04/04 04:56:46;;;;;;;29.00;9.13;;;1.90;53.10;;;;;;2380397;53;21007;-68
2022/04/04 04:59:13;;;;;;;25.25;8.93;;;1.90;53.00;;;;;;2323077;54;21336;-67
2022/04/04 05:01:42;;;;;;;16.15;7.25;;;1.90;53.00;;;;;;2322437;54;20956;-69
2022/04/04 05:04:09;;;;;;;20.45;7.82;;;1.90;53.00;;;;;;2322894;53;20952;-68
2022/04/04 05:06:35;;;;;;;23.45;8.00;;;1.90;53.00;;;;;;2321524;54;20956;-70
2022/04/04 05:09:02;;;;;;;16.33;5.90;;;1.90;53.00;;;;;;2322548;54;20980;-70
2022/04/04 05:11:29;;;;;;;15.38;6.20;;;1.90;53.00;;;;;;2461402;53;20948;-67
2022/04/04 05:13:55;;;;;;;11.85;5.15;;;1.90;53.00;;;;;;2478310;53;22030;-68
2022/04/04 05:16:28;;;;;;;16.02;5.53;;;1.90;53.00;;;;;;2323192;54;22000;-68
2022/04/04 05:18:55;;;;;;;10.50;4.78;;;1.90;53.10;;;;;;2323363;54;21000;-67
2022/04/04 05:21:22;;;;;;;9.38;4.85;;;1.90;53.10;;;;;;2325500;53;20984;-69
2022/04/04 05:23:48;;;;;;;9.18;3.90;;;1.90;53.10;;;;;;2324978;53;20952;-67
2022/04/04 05:26:14;;;;;;;8.90;4.20;;;2.00;53.10;;;;;;2322948;53;20947;-69
2022/04/04 05:28:43;;;;;;;8.15;3.80;;;2.00;53.10;;;;;;2322878;54;20960;-69
2022/04/04 05:31:10;;;;;;;8.10;3.80;;;2.10;53.20;;;;;;2323395;54;21023;-67
2022/04/04 05:33:36;;;;;;;8.00;4.00;;;2.00;53.10;;;;;;2323458;54;21445;-68
2022/04/04 05:36:04;;;;;;;7.68;3.70;;;2.10;53.20;;;;;;2323620;54;21387;-67
2022/04/04 05:38:31;;;;;;;6.30;3.55;;;2.10;53.10;;;;;;2323720;54;21563;-66
2022/04/04 05:40:57;;;;;;;5.62;2.87;;;2.10;53.00;;;;;;2322568;54;21040;-68
2022/04/04 05:43:24;;;;;;;7.70;3.78;;;2.10;53.00;;;;;;2323116;54;20984;-66
2022/04/04 05:45:50;;;;;;;7.93;3.65;;;2.10;52.90;;;;;;2333509;53;20988;-67
2022/04/04 05:48:16;;;;;;;5.65;3.35;;;2.10;53.00;;;;;;2323363;54;21481;-68
2022/04/04 05:50:42;;;;;;;7.05;3.22;;;2.10;52.90;;;;;;2322990;54;20983;-68
2022/04/04 05:53:09;;;;;;;6.93;3.53;;;2.10;52.90;;;;;;2323415;54;20949;-69
2022/04/04 05:55:35;;;;;;;10.27;4.40;;;2.10;52.90;;;;;;2323500;54;22001;-68
2022/04/04 05:58:02;;;;;;;6.12;3.05;;;2.10;52.80;;;;;;2323509;54;20952;-68
2022/04/04 06:00:28;;;;;;;7.37;3.47;;;2.10;52.90;;;;;;2304477;55;21320;-69
2022/04/04 06:02:55;;;;;;;8.10;3.65;;;2.10;52.90;;;;;;2323325;54;20936;-69
2022/04/04 06:05:22;;;;;;;8.93;4.47;;;2.10;52.90;;;;;;2323723;54;21971;-67
2022/04/04 06:07:48;;;;;;;8.25;4.25;;;2.10;52.90;;;;;;2567100;53;21007;-67
2022/04/04 06:10:16;;;;;;;8.48;4.25;;;2.10;53.00;;;;;;2323494;54;21516;-66
2022/04/04 06:12:43;;;;;;;9.68;4.45;;;2.10;53.00;;;;;;2323452;54;20940;-69
2022/04/04 06:15:15;;;;;;;11.77;5.50;;;2.10;53.00;;;;;;2323933;54;20956;-69
2022/04/04 06:17:43;;;;;;;10.73;4.37;;;2.10;53.00;;;;;;2323304;54;21966;-67
2022/04/04 06:20:11;;;;;;;12.13;5.70;;;2.10;53.00;;;;;;2323148;54;21963;-69
2022/04/04 06:22:38;;;;;;;10.60;5.12;;;2.10;53.10;;;;;;2566732;53;20924;-68
2022/04/04 06:25:07;;;;;;;9.00;4.65;;;2.10;53.10;;;;;;2323255;53;20937;-69
2022/04/04 06:27:34;;;;;;;8.85;4.57;;;2.20;53.20;;;;;;2323686;54;21868;-66
2022/04/04 06:30:00;;;;;;;9.00;4.30;;;2.20;53.30;;;;;;2323426;54;21395;-65
2022/04/04 06:32:27;;;;;;;8.95;4.12;;;2.20;53.30;;;;;;2323424;54;21257;-66
2022/04/04 06:34:53;;;;;;;8.02;3.83;;;2.30;53.40;;;;;;2323314;54;21071;-68
2022/04/04 06:37:19;;;;;;;7.87;3.62;;;2.30;53.50;;;;;;2323345;54;21100;-68
2022/04/04 06:39:46;;;;;;;4.85;2.85;;;2.30;53.50;;;;;;2323167;54;21548;-66
2022/04/04 06:42:12;;;;;;;5.70;3.28;;;2.40;53.60;;;;;;2323439;54;20983;-66
2022/04/04 06:44:39;;;;;;;6.05;2.90;;;2.50;54.40;;;;;;2324179;53;21055;-67
2022/04/04 06:47:05;;;;;;;5.15;2.83;;;2.80;56.30;;;;;;2326969;53;20985;-68
2022/04/04 06:49:31;;;;;;;4.57;2.67;;;3.30;58.30;;;;;;2322669;53;20924;-67
2022/04/04 06:51:58;;;;;;;4.15;2.60;;;3.80;59.50;;;;;;2327010;53;20957;-68
2022/04/04 06:54:24;;;;;;;3.92;2.58;;;4.50;60.40;;;;;;2322784;53;20980;-69
2022/04/04 06:56:52;;;;;;;4.57;2.67;;;5.20;61.10;;;;;;2327001;53;20953;-68
2022/04/04 06:59:18;;;;;;;5.03;2.83;;;5.80;60.90;;;;;;2323034;53;20980;-67
2022/04/04 07:01:44;;;;;;;4.55;2.85;;;6.40;59.70;;;;;;2323322;54;20942;-68
2022/04/04 07:04:11;;;;;;;4.20;2.40;;;6.90;58.30;;;;;;2324677;53;20993;-68
2022/04/04 07:06:38;;;;;;;4.85;2.78;;;7.20;56.80;;;;;;2322416;53;21458;-67
2022/04/04 07:09:04;;;;;;;6.53;3.00;;;7.40;55.40;;;;;;2330451;53;20918;-67
2022/04/04 07:11:30;;;;;;;4.32;2.70;;;7.50;54.30;;;;;;2322884;53;21088;-68
2022/04/04 07:13:57;;;;;;;5.62;2.85;;;7.50;53.40;;;;;;2329195;53;21551;-66
2022/04/04 07:16:25;;;;;;;5.15;3.03;;;7.40;52.80;;;;;;2313476;53;21067;-67
2022/04/04 07:18:52;;;;;;;6.68;3.15;;;7.30;52.60;;;;;;2325336;53;21020;-69
2022/04/04 07:21:18;;;;;;;5.65;3.10;;;7.30;52.90;;;;;;2316966;53;21516;-69
2022/04/04 07:23:45;;;;;;;5.40;3.30;;;7.40;53.40;;;;;;2323222;54;21738;-69
2022/04/04 07:26:14;;;;;;;6.45;3.22;;;7.60;54.20;;;;;;2322839;54;21912;-68
2022/04/04 07:28:42;;;;;;;5.00;3.10;;;7.80;54.70;;;;;;2327089;53;21000;-67
2022/04/04 07:31:09;;;;;;;5.55;2.85;;;8.10;54.90;;;;;;2316448;53;20928;-67
2022/04/04 07:33:35;;;;;;;5.03;3.22;;;8.40;55.00;;;;;;2349782;52;22149;-66
2022/04/04 07:36:02;;;;;;;6.93;3.45;;;8.70;54.50;;;;;;2323316;54;20968;-67
2022/04/04 07:38:29;;;;;;;4.85;3.15;;;8.90;54.20;;;;;;2323369;54;21098;-66
2022/04/04 07:40:55;;;;;;;6.00;3.95;;;9.10;53.80;;;;;;2323378;54;20964;-66
2022/04/04 07:43:22;;;;;;;5.87;3.35;;;9.20;53.30;;;;;;2323211;53;22118;-68
2022/04/04 07:45:48;;;;;;;5.18;3.30;;;9.30;52.60;;;;;;2323366;54;20952;-66
2022/04/04 07:48:15;;;;;;;5.55;3.37;;;9.30;51.90;;;;;;2323366;54;20917;-66
2022/04/04 07:50:44;;;;;;;5.50;3.58;;;9.30;51.30;;;;;;2323138;54;21040;-66
2022/04/04 07:53:10;;;;;;;5.85;3.50;;;9.20;50.70;;;;;;2323683;54;20946;-67
2022/04/04 07:55:36;;;;;;;6.57;3.92;;;9.10;50.40;;;;;;2327019;53;20988;-68
2022/04/04 07:58:03;;;;;;;5.80;4.03;;;9.00;50.00;;;;;;2323255;53;20932;-69
2022/04/04 08:00:31;;;;;;;6.43;3.95;;;8.90;49.70;;;;;;2323197;54;20992;-69
2022/04/04 08:02:57;;;;;;;5.65;3.87;;;8.80;49.80;;;;;;2322851;54;20980;-68
2022/04/04 08:05:25;;;;;;;6.47;3.70;;;8.80;49.80;;;;;;2323204;54;21048;-69
2022/04/04 08:07:52;;;;;;;6.22;3.85;;;8.70;49.60;;;;;;2323176;54;21055;-68
2022/04/04 08:10:21;;;;;;;6.75;4.03;;;8.60;49.80;;;;;;2323544;54;21040;-69
2022/04/04 08:12:49;;;;;;;7.45;4.80;;;8.50;49.80;;;;;;2301230;53;21434;-69
2022/04/04 08:15:16;;;;;;;6.32;4.40;;;8.50;49.80;;;;;;2331394;53;20941;-67
2022/04/04 08:17:42;;;;;;;7.47;4.93;;;8.50;49.90;;;;;;2329349;53;21094;-69
2022/04/04 08:20:09;;;;;;;7.87;4.78;;;8.50;50.00;;;;;;2333624;53;22181;-67
2022/04/04 08:22:39;;;;;;;9.23;5.05;;;8.60;50.30;;;;;;2329035;53;21321;-68
2022/04/04 08:25:06;;;;;;;7.70;4.90;;;8.70;50.10;;;;;;2329626;53;21147;-70
2022/04/04 08:27:33;;;;;;;7.95;5.15;;;8.80;50.30;;;;;;2329938;53;20937;-68
2022/04/04 08:29:59;;;;;;;8.20;5.18;;;8.90;50.40;;;;;;2329187;53;20997;-67
2022/04/04 08:32:25;;;;;;;6.70;4.40;;;9.00;50.50;;;;;;2330329;53;20941;-69
2022/04/04 08:34:51;;;;;;;9.70;5.60;;;9.20;51.10;;;;;;2329823;53;20941;-70
2022/04/04 08:37:17;;;;;;;9.73;5.47;;;9.50;51.40;;;;;;2329691;53;20952;-66
2022/04/04 08:39:47;;;;;;;9.52;6.57;;;9.70;52.00;;;;;;2332978;53;21047;-68
2022/04/04 08:42:15;;;;;;;12.25;7.05;;;10.00;50.40;;;;;;2333524;53;21378;-68
2022/04/04 08:44:43;;;;;;;9.77;6.95;;;10.30;50.30;;;;;;2493171;53;21553;-68
2022/04/04 08:47:09;;;;;;;9.48;7.03;;;10.50;49.90;;;;;;2329307;53;21331;-69
2022/04/04 08:49:36;;;;;;;8.63;7.03;;;10.80;49.70;;;;;;2332844;53;21056;-68
2022/04/04 08:52:02;;;;;;;10.45;7.32;;;10.90;49.30;;;;;;2329592;53;20949;-66
2022/04/04 08:54:29;;;;;;;10.45;7.28;;;11.10;49.20;;;;;;2574711;52;20931;-66
2022/04/04 08:56:55;;;;;;;11.43;7.57;;;11.30;49.30;;;;;;2328756;53;21578;-69
2022/04/04 08:59:22;;;;;;;10.38;8.05;;;11.60;49.30;;;;;;2329726;53;20984;-69
2022/04/04 09:01:48;;;;;;;9.85;7.37;;;11.80;48.70;;;;;;2329022;53;20976;-67
2022/04/04 09:04:16;;;;;;;10.30;7.90;;;11.90;48.10;;;;;;2329218;53;21032;-67
2022/04/04 09:06:52;;;;;;;11.15;8.15;;;12.00;47.50;;;;;;2332692;53;22180;-71
2022/04/04 09:09:25;;;;;;;10.60;7.43;;;12.10;46.70;;;;;;2333489;53;21705;-67
2022/04/04 09:12:40;;;;;;;9.43;6.53;;;12.20;47.30;;;;;;2326589;53;20917;-68
2022/04/04 09:15:07;;;;;;;8.95;6.40;;;12.40;47.90;;;;;;2329867;53;20940;-68
2022/04/04 09:17:33;;;;;;;8.38;5.85;;;12.60;48.20;;;;;;2332654;53;20929;-68
2022/04/04 09:20:07;;;;;;;9.35;6.82;;;12.80;48.00;;;;;;2331210;54;20945;-69
2022/04/04 09:22:33;;;;;;;9.32;7.18;;;12.90;47.50;;;;;;2329820;53;20933;-67
2022/04/04 09:25:02;;;;;;;11.02;7.03;;;13.00;47.20;;;;;;2329354;53;20929;-69
2022/04/04 09:27:30;;;;;;;10.18;6.57;;;13.20;45.60;;;;;;2335409;53;20945;-66
2022/04/04 09:30:21;;;;;;;10.63;7.20;;;13.20;45.80;;;;;;2328750;53;20952;-67
2022/04/04 09:32:49;;;;;;;8.27;6.18;;;13.30;45.50;;;;;;2329581;53;22031;-69
2022/04/04 09:35:18;;;;;;;9.40;6.85;;;13.30;46.20;;;;;;2455462;52;21992;-69
2022/04/04 09:37:45;;;;;;;8.27;5.80;;;13.40;45.60;;;;;;2330184;53;21740;-70
2022/04/04 09:40:27;;;;;;;8.98;6.68;;;13.50;45.20;;;;;;2329708;53;21067;-66
2022/04/04 09:42:58;;;;;;;11.07;8.02;;;13.60;43.70;;;;;;2329832;53;21907;-70
2022/04/04 09:45:25;;;;;;;9.02;6.78;;;13.50;43.40;;;;;;2329569;53;21898;-69
2022/04/04 09:48:05;;;;;;;8.55;5.62;;;13.60;43.40;;;;;;2329103;53;21023;-68
2022/04/04 09:50:46;;;;;;;8.45;6.30;;;13.50;42.80;;;;;;2309697;54;20937;-70
2022/04/04 09:53:17;;;;;;;6.87;5.00;;;13.40;42.70;;;;;;2329854;53;21339;-68
2022/04/04 09:55:52;;;;;;;6.10;4.30;;;13.40;43.30;;;;;;2329861;53;20941;-67
2022/04/04 09:58:39;;;;;;;7.75;5.60;;;13.40;43.60;;;;;;2329510;53;20952;-70
2022/04/04 10:01:05;;;;;;;8.32;6.55;;;13.50;43.00;;;;;;2574631;52;20988;-69
2022/04/04 10:03:32;;;;;;;10.05;5.47;;;13.50;43.50;;;;;;2575071;52;21547;-69
2022/04/04 10:06:09;;;;;;;8.05;5.72;;;13.50;43.00;;;;;;2329272;53;21000;-71
2022/04/04 10:08:37;;;;;;;8.05;4.82;;;13.50;42.40;;;;;;2331640;53;20948;-67
2022/04/04 10:11:04;;;;;;;8.23;6.03;;;13.60;42.50;;;;;;2330045;53;20912;-67
2022/04/04 10:13:30;;;;;;;11.68;6.80;;;13.60;41.20;;;;;;2575319;52;21982;-70
2022/04/04 10:15:56;;;;;;;9.65;5.55;;;13.50;40.90;;;;;;2329408;53;21914;-69
2022/04/04 10:18:23;;;;;;;9.10;4.97;;;13.40;41.30;;;;;;2443377;52;21055;-70
2022/04/04 10:20:55;;;;;;;7.32;5.30;;;13.40;41.90;;;;;;2329962;53;21032;-69
2022/04/04 10:23:22;;;;;;;7.65;5.82;;;13.40;41.80;;;;;;2533058;52;20965;-66
2022/04/04 10:25:49;;;;;;;7.62;5.53;;;13.30;39.60;;;;;;2329683;53;20993;-69
2022/04/04 10:28:32;;;;;;;7.47;5.65;;;13.30;39.70;;;;;;2462245;52;20940;-67
2022/04/04 10:31:17;;;;;;;6.07;4.47;;;13.20;38.80;;;;;;2329341;53;20997;-67
2022/04/04 10:33:43;;;;;;;5.65;3.80;;;13.00;39.00;;;;;;2329060;53;20984;-68
2022/04/04 10:36:11;;;;;;;5.20;3.65;;;12.80;39.20;;;;;;2329837;53;21028;-69
2022/04/04 10:38:55;;;;;;;4.80;3.08;;;12.70;39.40;;;;;;2328176;53;20920;-68
2022/04/04 10:41:30;;;;;;;5.70;3.72;;;12.60;39.80;;;;;;2574393;52;20969;-67
2022/04/04 10:43:57;;;;;;;5.47;3.58;;;12.60;39.80;;;;;;2317412;53;21379;-68
2022/04/04 10:46:24;;;;;;;6.72;3.40;;;12.60;40.20;;;;;;2322052;53;20945;-68
2022/04/04 10:48:53;;;;;;;5.95;4.03;;;12.60;40.50;;;;;;2329550;53;22281;-68
2022/04/04 10:51:27;;;;;;;7.30;4.10;;;12.70;40.50;;;;;;2329770;53;20957;-67
2022/04/04 10:54:10;;;;;;;7.18;3.95;;;12.70;40.90;;;;;;2330291;53;20929;-70
2022/04/04 10:56:46;;;;;;;5.93;3.70;;;12.80;40.90;;;;;;2438286;53;20956;-69
2022/04/04 10:59:30;;;;;;;7.72;4.22;;;12.90;40.10;;;;;;2334148;53;21068;-68
2022/04/04 11:01:58;;;;;;;6.75;4.00;;;13.00;39.50;;;;;;2329034;53;21460;-69
2022/04/04 11:04:26;;;;;;;8.25;4.68;;;13.00;39.60;;;;;;2574904;52;21012;-68
2022/04/04 11:10:07;;;;;;;7.40;5.03;;;13.00;39.50;;;;;;2329200;53;20905;-66
2022/04/04 11:12:51;;;;;;;;;;;13.00;39.20;;;;;;2333535;53;22154;-68
2022/04/04 11:15:19;;;;;;;8.13;5.12;;;13.00;38.90;;;;;;2329738;53;20167;-68
2022/04/04 11:18:00;;;;;;;12.05;7.10;;;13.10;38.50;;;;;;2408505;52;20933;-67
2022/04/04 11:20:33;;;;;;;19.33;9.70;;;13.10;38.40;;;;;;2329658;53;22404;-69
2022/04/04 11:23:09;;;;;;;14.52;7.53;;;13.10;39.10;;;;;;2328982;53;21256;-69
2022/04/04 11:25:37;;;;;;;9.60;5.87;;;13.20;38.30;;;;;;2506388;52;20968;-69
2022/04/04 11:28:06;;;;;;;7.80;4.80;;;13.20;38.50;;;;;;2309690;54;21059;-68
2022/04/04 11:30:33;;;;;;;6.45;4.53;;;13.20;38.70;;;;;;2309891;54;21103;-66
2022/04/04 11:32:59;;;;;;;6.15;4.30;;;13.30;39.20;;;;;;2329348;53;21520;-69
2022/04/04 11:35:30;;;;;;;6.03;3.85;;;13.30;38.80;;;;;;2336155;53;20980;-68
2022/04/04 11:38:06;;;;;;;7.45;4.78;;;13.30;39.10;;;;;;2329272;53;21332;-69
2022/04/04 11:40:38;;;;;;;7.80;5.35;;;13.40;38.90;;;;;;2333218;53;21392;-66
2022/04/04 11:43:08;;;;;;;6.35;4.40;;;13.40;37.50;;;;;;2329656;53;22203;-68
2022/04/04 11:45:39;;;;;;;6.68;4.10;;;13.40;37.50;;;;;;2383729;53;21649;-69
2022/04/04 11:48:17;;;;;;;6.45;4.35;;;13.30;37.70;;;;;;2310122;54;20948;-67
2022/04/04 11:50:44;;;;;;;5.90;4.22;;;13.30;37.40;;;;;;2328064;53;20929;-69
2022/04/04 11:53:14;;;;;;;7.65;4.85;;;13.20;37.80;;;;;;2467669;52;21543;-69
2022/04/04 11:55:42;;;;;;;6.28;3.97;;;13.30;37.60;;;;;;2332484;53;21052;-67
2022/04/04 11:58:12;;;;;;;5.57;3.58;;;13.30;38.30;;;;;;2328881;53;20948;-68
2022/04/04 12:00:40;;;;;;;5.97;4.10;;;13.30;38.10;;;;;;2328801;53;21558;-69
2022/04/04 12:03:16;;;;;;;7.75;3.90;;;13.20;38.00;;;;;;2329630;53;21482;-67
2022/04/04 12:05:47;;;;;;;6.47;3.92;;;13.20;37.80;;;;;;2329277;53;21012;-69
2022/04/04 12:08:15;;;;;;;7.35;4.93;;;13.20;38.20;;;;;;2333893;53;21084;-68
2022/04/04 12:10:42;;;;;;;7.18;4.80;;;13.30;37.70;;;;;;2328762;53;22242;-67
2022/04/04 12:13:13;;;;;;;7.25;4.80;;;13.40;37.60;;;;;;2329905;53;20945;-69
2022/04/04 12:15:44;;;;;;;6.57;4.50;;;13.30;37.10;;;;;;2314218;54;22247;-68
2022/04/04 12:18:26;;;;;;;6.80;4.55;;;13.30;37.10;;;;;;2329841;53;20937;-67
2022/04/04 12:20:54;;;;;;;6.70;4.18;;;13.30;37.50;;;;;;2329184;53;20984;-67
2022/04/04 12:26:10;;;;;;;6.65;4.65;;;13.30;36.70;;;;;;2308818;53;20971;-69
2022/04/04 12:28:39;;;;;;;5.97;4.22;;;13.40;37.20;;;;;;2298848;54;21410;-68
2022/04/04 12:31:17;;;;;;;5.68;4.07;;;13.50;37.60;;;;;;2312291;54;21013;-67
2022/04/04 12:33:43;;;;;;;5.55;4.10;;;13.60;36.80;;;;;;2327553;53;21483;-70
2022/04/04 12:36:10;;;;;;;5.82;4.15;;;13.60;37.20;;;;;;2302763;54;20984;-68
2022/04/04 12:38:37;;;;;;;6.45;4.45;;;13.60;36.30;;;;;;2303080;53;21056;-67
2022/04/04 12:41:15;;;;;;;6.57;4.55;;;13.60;36.00;;;;;;2305817;53;20924;-69
2022/04/04 12:43:45;;;;;;;7.80;4.95;;;13.70;36.10;;;;;;2325166;53;21477;-69
2022/04/04 12:46:23;;;;;;;5.95;4.18;;;13.70;35.80;;;;;;2567557;53;20929;-67
2022/04/04 12:48:50;;;;;;;5.75;3.80;;;13.70;36.10;;;;;;2318922;53;21063;-67
2022/04/04 12:51:27;;;;;;;6.78;4.50;;;13.70;36.50;;;;;;2331396;53;20957;-66
2022/04/04 12:53:54;;;;;;;7.32;4.20;;;13.80;35.70;;;;;;2311593;53;21994;-66
2022/04/04 12:56:20;;;;;;;6.18;3.67;;;13.80;36.30;;;;;;2323291;53;20944;-66
2022/04/04 12:59:09;;;;;;;7.87;4.72;;;13.80;36.70;;;;;;2324334;53;20932;-69
2022/04/04 13:01:35;;;;;;;6.57;4.53;;;13.90;35.60;;;;;;2324349;54;20980;-67
2022/04/04 13:04:03;;;;;;;6.90;4.72;;;13.90;35.70;;;;;;2324545;54;21381;-68
2022/04/04 13:06:30;;;;;;;6.47;4.57;;;13.90;35.60;;;;;;2324244;54;21039;-68
2022/04/04 13:09:01;;;;;;;9.77;4.55;;;13.90;36.00;;;;;;2568163;53;21087;-69
2022/04/04 13:11:29;;;;;;;7.03;4.37;;;14.00;35.50;;;;;;2324874;54;21035;-68